sensor_id;sensor_type;location;lat;lon;timestamp;temperature;humidity
1405;DHT22;697;51.114;6.542;2023-02-01T00:00:12;7.40;99.90
1405;DHT22;697;51.114;6.542;2023-02-01T00:02:39;7.40;99.90
1405;DHT22;697;51.114;6.542;2023-02-01T00:05:07;7.40;99.90
1405;DHT22;697;51.114;6.542;2023-02-01T00:07:35;7.40;99.90
1405;DHT22;697;51.114;6.542;2023-02-01T00:10:04;7.40;99.90
1405;DHT22;697;51.114;6.542;2023-02-01T00:12:31;7.40;99.90
1405;DHT22;697;51.114;6.542;2023-02-01T00:14:58;7.40;99.90
1405;DHT22;697;51.114;6.542;2023-02-01T00:17:25;7.40;99.90
1405;DHT22;697;51.114;6.542;2023-02-01T00:19:52;7.40;99.90
1405;DHT22;697;51.114;6.542;2023-02-01T00:22:18;7.30;99.90
1405;DHT22;697;51.114;6.542;2023-02-01T00:24:46;7.30;99.90
1405;DHT22;697;51.114;6.542;2023-02-01T00:27:13;7.30;99.90
1405;DHT22;697;51.114;6.542;2023-02-01T00:29:43;7.20;99.90
1405;DHT22;697;51.114;6.542;2023-02-01T00:32:11;7.30;99.90
1405;DHT22;697;51.114;6.542;2023-02-01T00:34:38;7.20;99.90
1405;DHT22;697;51.114;6.542;2023-02-01T00:37:05;7.20;99.90
1405;DHT22;697;51.114;6.542;2023-02-01T00:39:31;7.10;99.90
1405;DHT22;697;51.114;6.542;2023-02-01T00:42:01;7.10;99.90
1405;DHT22;697;51.114;6.542;2023-02-01T00:44:28;7.10;99.90
1405;DHT22;697;51.114;6.542;2023-02-01T00:46:59;7.00;99.90
1405;DHT22;697;51.114;6.542;2023-02-01T00:49:25;7.00;99.90
1405;DHT22;697;51.114;6.542;2023-02-01T00:51:52;7.00;99.90
1405;DHT22;697;51.114;6.542;2023-02-01T00:54:19;7.00;99.90
1405;DHT22;697;51.114;6.542;2023-02-01T00:56:46;7.00;99.90
1405;DHT22;697;51.114;6.542;2023-02-01T00:59:14;6.90;99.90
1405;DHT22;697;51.114;6.542;2023-02-01T01:01:41;6.90;99.90
1405;DHT22;697;51.114;6.542;2023-02-01T01:04:08;6.80;99.90
1405;DHT22;697;51.114;6.542;2023-02-01T01:06:35;6.80;99.90
1405;DHT22;697;51.114;6.542;2023-02-01T01:09:04;6.70;99.90
1405;DHT22;697;51.114;6.542;2023-02-01T01:11:33;6.70;99.90
1405;DHT22;697;51.114;6.542;2023-02-01T01:14:00;6.70;99.90
1405;DHT22;697;51.114;6.542;2023-02-01T01:16:30;6.60;99.90
1405;DHT22;697;51.114;6.542;2023-02-01T01:18:57;6.60;99.90
1405;DHT22;697;51.114;6.542;2023-02-01T01:21:25;6.60;99.90
1405;DHT22;697;51.114;6.542;2023-02-01T01:23:52;6.60;99.90
1405;DHT22;697;51.114;6.542;2023-02-01T01:26:20;6.60;99.90
1405;DHT22;697;51.114;6.542;2023-02-01T01:28:48;6.50;99.90
1405;DHT22;697;51.114;6.542;2023-02-01T01:31:16;6.50;99.90
1405;DHT22;697;51.114;6.542;2023-02-01T01:33:47;6.50;99.90
1405;DHT22;697;51.114;6.542;2023-02-01T01:36:14;6.50;99.90
1405;DHT22;697;51.114;6.542;2023-02-01T01:38:42;6.50;99.90
1405;DHT22;697;51.114;6.542;2023-02-01T01:41:13;6.50;99.90
1405;DHT22;697;51.114;6.542;2023-02-01T01:43:54;6.50;99.90
1405;DHT22;697;51.114;6.542;2023-02-01T01:46:23;6.40;99.90
1405;DHT22;697;51.114;6.542;2023-02-01T01:48:57;6.40;99.90
1405;DHT22;697;51.114;6.542;2023-02-01T01:51:28;6.40;99.90
1405;DHT22;697;51.114;6.542;2023-02-01T01:54:02;6.40;99.90
1405;DHT22;697;51.114;6.542;2023-02-01T01:56:32;6.50;99.90
1405;DHT22;697;51.114;6.542;2023-02-01T01:59:00;6.50;99.90
1405;DHT22;697;51.114;6.542;2023-02-01T02:01:28;6.50;99.90
1405;DHT22;697;51.114;6.542;2023-02-01T02:03:59;6.50;99.90
1405;DHT22;697;51.114;6.542;2023-02-01T02:06:33;6.50;99.90
1405;DHT22;697;51.114;6.542;2023-02-01T02:09:03;6.50;99.90
1405;DHT22;697;51.114;6.542;2023-02-01T02:11:30;6.50;99.90
1405;DHT22;697;51.114;6.542;2023-02-01T02:13:58;6.50;99.90
1405;DHT22;697;51.114;6.542;2023-02-01T02:16:54;6.50;99.90
1405;DHT22;697;51.114;6.542;2023-02-01T02:22:55;6.60;99.90
1405;DHT22;697;51.114;6.542;2023-02-01T02:25:53;6.60;99.90
1405;DHT22;697;51.114;6.542;2023-02-01T02:28:42;6.60;99.90
1405;DHT22;697;51.114;6.542;2023-02-01T02:31:37;6.60;99.90
1405;DHT22;697;51.114;6.542;2023-02-01T02:34:14;6.60;99.90
1405;DHT22;697;51.114;6.542;2023-02-01T02:36:54;6.60;99.90
1405;DHT22;697;51.114;6.542;2023-02-01T02:39:29;6.70;99.90
1405;DHT22;697;51.114;6.542;2023-02-01T02:42:06;6.60;99.90
1405;DHT22;697;51.114;6.542;2023-02-01T02:44:56;6.70;99.90
1405;DHT22;697;51.114;6.542;2023-02-01T02:47:45;6.70;99.90
1405;DHT22;697;51.114;6.542;2023-02-01T02:50:24;6.60;99.90
1405;DHT22;697;51.114;6.542;2023-02-01T02:53:14;6.60;99.90
1405;DHT22;697;51.114;6.542;2023-02-01T02:56:09;6.60;99.90
1405;DHT22;697;51.114;6.542;2023-02-01T02:58:54;6.60;99.90
1405;DHT22;697;51.114;6.542;2023-02-01T03:01:40;6.60;99.90
1405;DHT22;697;51.114;6.542;2023-02-01T03:04:25;6.70;99.90
1405;DHT22;697;51.114;6.542;2023-02-01T03:06:54;6.60;99.90
1405;DHT22;697;51.114;6.542;2023-02-01T03:09:23;6.60;99.90
1405;DHT22;697;51.114;6.542;2023-02-01T03:11:56;6.60;99.90
1405;DHT22;697;51.114;6.542;2023-02-01T03:14:45;6.70;99.90
1405;DHT22;697;51.114;6.542;2023-02-01T03:17:15;6.70;99.90
1405;DHT22;697;51.114;6.542;2023-02-01T03:19:46;6.70;99.90
1405;DHT22;697;51.114;6.542;2023-02-01T03:22:19;6.70;99.90
1405;DHT22;697;51.114;6.542;2023-02-01T03:24:49;6.60;99.90
1405;DHT22;697;51.114;6.542;2023-02-01T03:27:22;6.60;99.90
1405;DHT22;697;51.114;6.542;2023-02-01T03:29:56;6.70;99.90
1405;DHT22;697;51.114;6.542;2023-02-01T03:32:25;6.70;99.90
1405;DHT22;697;51.114;6.542;2023-02-01T03:34:52;6.70;99.90
1405;DHT22;697;51.114;6.542;2023-02-01T03:37:24;6.70;99.90
1405;DHT22;697;51.114;6.542;2023-02-01T03:39:56;6.70;99.90
1405;DHT22;697;51.114;6.542;2023-02-01T03:42:28;6.80;99.90
1405;DHT22;697;51.114;6.542;2023-02-01T03:45:03;6.70;99.90
1405;DHT22;697;51.114;6.542;2023-02-01T03:47:35;6.80;99.90
1405;DHT22;697;51.114;6.542;2023-02-01T03:50:05;6.80;99.90
1405;DHT22;697;51.114;6.542;2023-02-01T03:52:37;6.80;99.90
1405;DHT22;697;51.114;6.542;2023-02-01T03:55:07;6.80;99.90
1405;DHT22;697;51.114;6.542;2023-02-01T03:57:36;6.80;99.90
1405;DHT22;697;51.114;6.542;2023-02-01T04:00:07;6.80;99.90
1405;DHT22;697;51.114;6.542;2023-02-01T04:02:35;6.80;99.90
1405;DHT22;697;51.114;6.542;2023-02-01T04:05:02;6.80;99.90
1405;DHT22;697;51.114;6.542;2023-02-01T04:07:29;6.80;99.90
1405;DHT22;697;51.114;6.542;2023-02-01T04:09:57;6.70;99.90
1405;DHT22;697;51.114;6.542;2023-02-01T04:12:23;6.70;99.90
1405;DHT22;697;51.114;6.542;2023-02-01T04:14:50;6.70;99.90
1405;DHT22;697;51.114;6.542;2023-02-01T04:17:17;6.70;99.90
1405;DHT22;697;51.114;6.542;2023-02-01T04:19:44;6.70;99.90
1405;DHT22;697;51.114;6.542;2023-02-01T04:22:11;6.70;99.90
1405;DHT22;697;51.114;6.542;2023-02-01T04:24:38;6.70;99.90
1405;DHT22;697;51.114;6.542;2023-02-01T04:27:06;6.60;99.90
1405;DHT22;697;51.114;6.542;2023-02-01T04:29:33;6.60;99.90
1405;DHT22;697;51.114;6.542;2023-02-01T04:32:00;6.60;99.90
1405;DHT22;697;51.114;6.542;2023-02-01T04:34:27;6.50;99.90
1405;DHT22;697;51.114;6.542;2023-02-01T04:36:54;6.50;99.90
1405;DHT22;697;51.114;6.542;2023-02-01T04:39:20;6.50;99.90
1405;DHT22;697;51.114;6.542;2023-02-01T04:41:48;6.40;99.90
1405;DHT22;697;51.114;6.542;2023-02-01T04:44:18;6.40;99.90
1405;DHT22;697;51.114;6.542;2023-02-01T04:46:46;6.40;99.90
1405;DHT22;697;51.114;6.542;2023-02-01T04:49:14;6.40;99.90
1405;DHT22;697;51.114;6.542;2023-02-01T04:51:41;6.40;99.90
1405;DHT22;697;51.114;6.542;2023-02-01T04:54:08;6.30;99.90
1405;DHT22;697;51.114;6.542;2023-02-01T04:56:36;6.30;99.90
1405;DHT22;697;51.114;6.542;2023-02-01T04:59:03;6.30;99.90
1405;DHT22;697;51.114;6.542;2023-02-01T05:01:32;6.30;99.90
1405;DHT22;697;51.114;6.542;2023-02-01T05:03:59;6.30;99.90
1405;DHT22;697;51.114;6.542;2023-02-01T05:06:26;6.30;99.90
1405;DHT22;697;51.114;6.542;2023-02-01T05:08:53;6.30;99.90
1405;DHT22;697;51.114;6.542;2023-02-01T05:11:19;6.30;99.90
1405;DHT22;697;51.114;6.542;2023-02-01T05:14:03;6.30;99.90
1405;DHT22;697;51.114;6.542;2023-02-01T05:16:31;6.30;99.90
1405;DHT22;697;51.114;6.542;2023-02-01T05:18:58;6.30;99.90
1405;DHT22;697;51.114;6.542;2023-02-01T05:21:25;6.30;99.90
1405;DHT22;697;51.114;6.542;2023-02-01T05:23:52;6.30;99.90
1405;DHT22;697;51.114;6.542;2023-02-01T05:26:39;6.20;99.90
1405;DHT22;697;51.114;6.542;2023-02-01T05:29:07;6.20;99.90
1405;DHT22;697;51.114;6.542;2023-02-01T05:31:36;6.20;99.90
1405;DHT22;697;51.114;6.542;2023-02-01T05:34:03;6.20;99.90
1405;DHT22;697;51.114;6.542;2023-02-01T05:36:30;6.20;99.90
1405;DHT22;697;51.114;6.542;2023-02-01T05:38:57;6.20;99.90
1405;DHT22;697;51.114;6.542;2023-02-01T05:41:24;6.10;99.90
1405;DHT22;697;51.114;6.542;2023-02-01T05:43:51;6.10;99.90
1405;DHT22;697;51.114;6.542;2023-02-01T05:46:18;6.00;99.90
1405;DHT22;697;51.114;6.542;2023-02-01T05:48:46;6.10;99.90
1405;DHT22;697;51.114;6.542;2023-02-01T05:51:13;6.10;99.90
1405;DHT22;697;51.114;6.542;2023-02-01T05:53:40;6.10;99.90
1405;DHT22;697;51.114;6.542;2023-02-01T05:56:06;6.10;99.90
1405;DHT22;697;51.114;6.542;2023-02-01T05:58:33;6.10;99.90
1405;DHT22;697;51.114;6.542;2023-02-01T06:01:00;6.10;99.90
1405;DHT22;697;51.114;6.542;2023-02-01T06:03:28;6.10;99.90
1405;DHT22;697;51.114;6.542;2023-02-01T06:05:56;6.10;99.90
1405;DHT22;697;51.114;6.542;2023-02-01T06:08:23;6.10;99.90
1405;DHT22;697;51.114;6.542;2023-02-01T06:10:56;6.10;99.90
1405;DHT22;697;51.114;6.542;2023-02-01T06:13:23;6.10;99.90
1405;DHT22;697;51.114;6.542;2023-02-01T06:15:50;6.10;99.90
1405;DHT22;697;51.114;6.542;2023-02-01T06:18:17;6.00;99.90
1405;DHT22;697;51.114;6.542;2023-02-01T06:20:44;6.00;99.90
1405;DHT22;697;51.114;6.542;2023-02-01T06:23:12;6.00;99.90
1405;DHT22;697;51.114;6.542;2023-02-01T06:25:39;6.00;99.90
1405;DHT22;697;51.114;6.542;2023-02-01T06:28:06;6.00;99.90
1405;DHT22;697;51.114;6.542;2023-02-01T06:30:33;6.00;99.90
1405;DHT22;697;51.114;6.542;2023-02-01T06:33:00;6.00;99.90
1405;DHT22;697;51.114;6.542;2023-02-01T06:35:27;6.10;99.90
1405;DHT22;697;51.114;6.542;2023-02-01T06:37:53;6.10;99.90
1405;DHT22;697;51.114;6.542;2023-02-01T06:40:21;6.00;99.90
1405;DHT22;697;51.114;6.542;2023-02-01T06:42:49;6.10;99.90
1405;DHT22;697;51.114;6.542;2023-02-01T06:45:16;6.10;99.90
1405;DHT22;697;51.114;6.542;2023-02-01T06:47:43;6.10;99.90
1405;DHT22;697;51.114;6.542;2023-02-01T06:50:10;6.10;99.90
1405;DHT22;697;51.114;6.542;2023-02-01T06:52:37;6.10;99.90
1405;DHT22;697;51.114;6.542;2023-02-01T06:55:04;6.20;99.90
1405;DHT22;697;51.114;6.542;2023-02-01T06:57:32;6.20;99.90
1405;DHT22;697;51.114;6.542;2023-02-01T07:00:01;6.10;99.90
1405;DHT22;697;51.114;6.542;2023-02-01T07:02:28;6.20;99.90
1405;DHT22;697;51.114;6.542;2023-02-01T07:04:55;6.20;99.90
1405;DHT22;697;51.114;6.542;2023-02-01T07:07:22;6.20;99.90
1405;DHT22;697;51.114;6.542;2023-02-01T07:09:49;6.20;99.90
1405;DHT22;697;51.114;6.542;2023-02-01T07:12:16;6.20;99.90
1405;DHT22;697;51.114;6.542;2023-02-01T07:14:45;6.20;99.90
1405;DHT22;697;51.114;6.542;2023-02-01T07:17:11;6.20;99.90
1405;DHT22;697;51.114;6.542;2023-02-01T07:19:38;6.10;99.90
1405;DHT22;697;51.114;6.542;2023-02-01T07:22:05;6.10;99.90
1405;DHT22;697;51.114;6.542;2023-02-01T07:24:33;6.20;99.90
1405;DHT22;697;51.114;6.542;2023-02-01T07:27:00;6.20;99.90
1405;DHT22;697;51.114;6.542;2023-02-01T07:29:27;6.20;99.90
1405;DHT22;697;51.114;6.542;2023-02-01T07:31:55;6.20;99.90
1405;DHT22;697;51.114;6.542;2023-02-01T07:34:22;6.20;99.90
1405;DHT22;697;51.114;6.542;2023-02-01T07:36:48;6.20;99.90
1405;DHT22;697;51.114;6.542;2023-02-01T07:39:15;6.20;99.90
1405;DHT22;697;51.114;6.542;2023-02-01T07:41:42;6.20;99.90
1405;DHT22;697;51.114;6.542;2023-02-01T07:44:09;6.30;99.90
1405;DHT22;697;51.114;6.542;2023-02-01T07:46:36;6.30;99.90
1405;DHT22;697;51.114;6.542;2023-02-01T07:49:06;6.30;99.90
1405;DHT22;697;51.114;6.542;2023-02-01T07:51:32;6.30;99.90
1405;DHT22;697;51.114;6.542;2023-02-01T07:53:59;6.30;99.90
1405;DHT22;697;51.114;6.542;2023-02-01T07:56:26;6.30;99.90
1405;DHT22;697;51.114;6.542;2023-02-01T07:58:54;6.40;99.90
1405;DHT22;697;51.114;6.542;2023-02-01T08:01:23;6.40;99.90
1405;DHT22;697;51.114;6.542;2023-02-01T08:03:51;6.40;99.90
1405;DHT22;697;51.114;6.542;2023-02-01T08:06:19;6.40;99.90
1405;DHT22;697;51.114;6.542;2023-02-01T08:08:47;6.40;99.90
1405;DHT22;697;51.114;6.542;2023-02-01T08:11:14;6.40;99.90
1405;DHT22;697;51.114;6.542;2023-02-01T08:13:41;6.30;99.90
1405;DHT22;697;51.114;6.542;2023-02-01T08:16:10;6.30;99.90
1405;DHT22;697;51.114;6.542;2023-02-01T08:18:38;6.30;99.90
1405;DHT22;697;51.114;6.542;2023-02-01T08:21:06;6.30;99.90
1405;DHT22;697;51.114;6.542;2023-02-01T08:23:35;6.40;99.90
1405;DHT22;697;51.114;6.542;2023-02-01T08:26:07;6.40;99.90
1405;DHT22;697;51.114;6.542;2023-02-01T08:28:34;6.30;99.90
1405;DHT22;697;51.114;6.542;2023-02-01T08:31:05;6.30;99.90
1405;DHT22;697;51.114;6.542;2023-02-01T08:33:32;6.30;99.90
1405;DHT22;697;51.114;6.542;2023-02-01T08:36:01;6.40;99.90
1405;DHT22;697;51.114;6.542;2023-02-01T08:38:27;6.30;99.90
1405;DHT22;697;51.114;6.542;2023-02-01T08:40:56;6.40;99.90
1405;DHT22;697;51.114;6.542;2023-02-01T08:43:23;6.40;99.90
1405;DHT22;697;51.114;6.542;2023-02-01T08:45:54;6.50;99.90
1405;DHT22;697;51.114;6.542;2023-02-01T08:48:21;6.50;99.90
1405;DHT22;697;51.114;6.542;2023-02-01T08:50:48;6.50;99.90
1405;DHT22;697;51.114;6.542;2023-02-01T08:53:15;6.60;99.90
1405;DHT22;697;51.114;6.542;2023-02-01T08:55:41;6.60;99.90
1405;DHT22;697;51.114;6.542;2023-02-01T08:58:10;6.70;99.90
1405;DHT22;697;51.114;6.542;2023-02-01T09:00:36;6.70;99.90
1405;DHT22;697;51.114;6.542;2023-02-01T09:03:03;6.60;99.90
1405;DHT22;697;51.114;6.542;2023-02-01T09:05:31;6.70;99.90
1405;DHT22;697;51.114;6.542;2023-02-01T09:07:57;6.80;99.90
1405;DHT22;697;51.114;6.542;2023-02-01T09:10:24;6.80;99.90
1405;DHT22;697;51.114;6.542;2023-02-01T09:12:52;6.80;99.90
1405;DHT22;697;51.114;6.542;2023-02-01T09:15:20;6.80;99.90
1405;DHT22;697;51.114;6.542;2023-02-01T09:17:47;6.70;99.90
1405;DHT22;697;51.114;6.542;2023-02-01T09:20:14;6.70;99.90
1405;DHT22;697;51.114;6.542;2023-02-01T09:22:41;6.70;99.90
1405;DHT22;697;51.114;6.542;2023-02-01T09:25:08;6.80;99.90
1405;DHT22;697;51.114;6.542;2023-02-01T09:27:35;6.80;99.90
1405;DHT22;697;51.114;6.542;2023-02-01T09:30:02;6.90;99.90
1405;DHT22;697;51.114;6.542;2023-02-01T09:32:31;6.90;99.90
1405;DHT22;697;51.114;6.542;2023-02-01T09:34:58;6.90;99.90
1405;DHT22;697;51.114;6.542;2023-02-01T09:37:25;7.00;99.90
1405;DHT22;697;51.114;6.542;2023-02-01T09:39:52;7.00;99.90
1405;DHT22;697;51.114;6.542;2023-02-01T09:42:36;7.00;99.90
1405;DHT22;697;51.114;6.542;2023-02-01T09:45:17;7.00;99.90
1405;DHT22;697;51.114;6.542;2023-02-01T09:47:50;7.00;99.90
1405;DHT22;697;51.114;6.542;2023-02-01T09:50:21;6.90;99.90
1405;DHT22;697;51.114;6.542;2023-02-01T09:52:55;6.90;99.90
1405;DHT22;697;51.114;6.542;2023-02-01T09:55:30;6.90;99.90
1405;DHT22;697;51.114;6.542;2023-02-01T09:58:02;6.90;99.90
1405;DHT22;697;51.114;6.542;2023-02-01T10:00:35;7.00;99.90
1405;DHT22;697;51.114;6.542;2023-02-01T10:03:07;7.00;99.90
1405;DHT22;697;51.114;6.542;2023-02-01T10:05:49;7.10;99.90
1405;DHT22;697;51.114;6.542;2023-02-01T10:08:26;7.10;99.90
1405;DHT22;697;51.114;6.542;2023-02-01T10:11:05;7.10;99.90
1405;DHT22;697;51.114;6.542;2023-02-01T10:13:49;7.10;99.90
1405;DHT22;697;51.114;6.542;2023-02-01T10:16:29;7.20;99.90
1405;DHT22;697;51.114;6.542;2023-02-01T10:19:27;7.20;99.90
1405;DHT22;697;51.114;6.542;2023-02-01T10:22:01;7.30;99.90
1405;DHT22;697;51.114;6.542;2023-02-01T10:24:38;7.30;99.90
1405;DHT22;697;51.114;6.542;2023-02-01T10:27:19;7.40;99.90
1405;DHT22;697;51.114;6.542;2023-02-01T10:29:51;7.40;99.90
1405;DHT22;697;51.114;6.542;2023-02-01T10:32:21;7.50;99.90
1405;DHT22;697;51.114;6.542;2023-02-01T10:34:55;7.50;99.90
1405;DHT22;697;51.114;6.542;2023-02-01T10:37:28;7.60;99.90
1405;DHT22;697;51.114;6.542;2023-02-01T10:39:57;7.70;99.90
1405;DHT22;697;51.114;6.542;2023-02-01T10:42:27;7.70;99.90
1405;DHT22;697;51.114;6.542;2023-02-01T10:44:56;7.80;99.90
1405;DHT22;697;51.114;6.542;2023-02-01T10:47:23;7.90;99.90
1405;DHT22;697;51.114;6.542;2023-02-01T10:49:58;7.90;99.90
1405;DHT22;697;51.114;6.542;2023-02-01T10:52:36;8.10;99.90
1405;DHT22;697;51.114;6.542;2023-02-01T10:55:32;8.10;99.30
1405;DHT22;697;51.114;6.542;2023-02-01T10:58:01;8.10;99.00
1405;DHT22;697;51.114;6.542;2023-02-01T11:00:33;8.10;99.50
1405;DHT22;697;51.114;6.542;2023-02-01T11:03:03;8.20;99.60
1405;DHT22;697;51.114;6.542;2023-02-01T11:05:48;8.20;98.50
1405;DHT22;697;51.114;6.542;2023-02-01T11:08:15;8.20;99.10
1405;DHT22;697;51.114;6.542;2023-02-01T11:10:43;8.20;98.90
1405;DHT22;697;51.114;6.542;2023-02-01T11:13:14;8.20;99.00
1405;DHT22;697;51.114;6.542;2023-02-01T11:15:43;8.20;99.40
1405;DHT22;697;51.114;6.542;2023-02-01T11:18:18;8.30;99.10
1405;DHT22;697;51.114;6.542;2023-02-01T11:20:47;8.40;99.10
1405;DHT22;697;51.114;6.542;2023-02-01T11:23:19;8.40;98.70
1405;DHT22;697;51.114;6.542;2023-02-01T11:25:49;8.50;98.60
1405;DHT22;697;51.114;6.542;2023-02-01T11:28:18;8.50;97.80
1405;DHT22;697;51.114;6.542;2023-02-01T11:30:47;8.50;98.10
1405;DHT22;697;51.114;6.542;2023-02-01T11:33:16;8.40;98.10
1405;DHT22;697;51.114;6.542;2023-02-01T11:35:44;8.50;98.20
1405;DHT22;697;51.114;6.542;2023-02-01T11:38:20;8.40;98.00
1405;DHT22;697;51.114;6.542;2023-02-01T11:40:47;8.40;98.50
1405;DHT22;697;51.114;6.542;2023-02-01T11:43:19;8.50;98.30
1405;DHT22;697;51.114;6.542;2023-02-01T11:45:56;8.50;97.80
1405;DHT22;697;51.114;6.542;2023-02-01T11:48:25;8.50;98.10
1405;DHT22;697;51.114;6.542;2023-02-01T11:51:12;8.40;97.70
1405;DHT22;697;51.114;6.542;2023-02-01T11:54:02;8.50;98.00
1405;DHT22;697;51.114;6.542;2023-02-01T11:56:35;8.50;97.30
1405;DHT22;697;51.114;6.542;2023-02-01T11:59:13;8.50;97.30
1405;DHT22;697;51.114;6.542;2023-02-01T12:01:56;8.50;97.40
1405;DHT22;697;51.114;6.542;2023-02-01T12:07:33;8.60;96.20
1405;DHT22;697;51.114;6.542;2023-02-01T12:10:15;8.60;95.80
1405;DHT22;697;51.114;6.542;2023-02-01T12:12:49;8.60;96.20
1405;DHT22;697;51.114;6.542;2023-02-01T12:15:30;8.60;96.10
1405;DHT22;697;51.114;6.542;2023-02-01T12:21:02;8.60;95.60
1405;DHT22;697;51.114;6.542;2023-02-01T12:23:43;8.60;95.60
1405;DHT22;697;51.114;6.542;2023-02-01T12:26:29;8.70;95.90
1405;DHT22;697;51.114;6.542;2023-02-01T12:29:18;8.70;95.90
1405;DHT22;697;51.114;6.542;2023-02-01T12:32:02;8.60;95.80
1405;DHT22;697;51.114;6.542;2023-02-01T12:34:57;8.50;96.00
1405;DHT22;697;51.114;6.542;2023-02-01T12:37:38;8.50;96.20
1405;DHT22;697;51.114;6.542;2023-02-01T12:40:33;8.40;96.30
1405;DHT22;697;51.114;6.542;2023-02-01T12:43:07;8.40;96.40
1405;DHT22;697;51.114;6.542;2023-02-01T12:45:39;8.40;96.50
1405;DHT22;697;51.114;6.542;2023-02-01T12:48:20;8.40;96.50
1405;DHT22;697;51.114;6.542;2023-02-01T12:50:51;8.40;96.40
1405;DHT22;697;51.114;6.542;2023-02-01T12:53:23;8.40;96.60
1405;DHT22;697;51.114;6.542;2023-02-01T12:55:54;8.50;96.90
1405;DHT22;697;51.114;6.542;2023-02-01T12:58:25;8.50;96.30
1405;DHT22;697;51.114;6.542;2023-02-01T13:00:59;8.50;96.50
1405;DHT22;697;51.114;6.542;2023-02-01T13:03:34;8.50;96.50
1405;DHT22;697;51.114;6.542;2023-02-01T13:06:07;8.50;96.80
1405;DHT22;697;51.114;6.542;2023-02-01T13:08:40;8.60;96.30
1405;DHT22;697;51.114;6.542;2023-02-01T13:11:12;8.60;96.40
1405;DHT22;697;51.114;6.542;2023-02-01T13:13:48;8.50;96.20
1405;DHT22;697;51.114;6.542;2023-02-01T13:16:25;8.50;96.50
1405;DHT22;697;51.114;6.542;2023-02-01T13:18:59;8.50;96.20
1405;DHT22;697;51.114;6.542;2023-02-01T13:21:31;8.50;96.60
1405;DHT22;697;51.114;6.542;2023-02-01T13:23:58;8.60;96.80
1405;DHT22;697;51.114;6.542;2023-02-01T13:26:25;8.60;96.80
1405;DHT22;697;51.114;6.542;2023-02-01T13:28:57;8.60;96.80
1405;DHT22;697;51.114;6.542;2023-02-01T13:31:50;8.60;97.10
1405;DHT22;697;51.114;6.542;2023-02-01T13:37:31;8.60;96.80
1405;DHT22;697;51.114;6.542;2023-02-01T13:40:10;8.60;96.60
1405;DHT22;697;51.114;6.542;2023-02-01T13:42:47;8.60;96.40
1405;DHT22;697;51.114;6.542;2023-02-01T13:45:18;8.50;96.90
1405;DHT22;697;51.114;6.542;2023-02-01T13:47:48;8.60;96.80
1405;DHT22;697;51.114;6.542;2023-02-01T13:50:22;8.60;96.60
1405;DHT22;697;51.114;6.542;2023-02-01T13:52:55;8.60;96.10
1405;DHT22;697;51.114;6.542;2023-02-01T13:55:29;8.60;95.90
1405;DHT22;697;51.114;6.542;2023-02-01T13:58:04;8.60;96.20
1405;DHT22;697;51.114;6.542;2023-02-01T14:00:35;8.60;96.30
1405;DHT22;697;51.114;6.542;2023-02-01T14:03:11;8.70;96.10
1405;DHT22;697;51.114;6.542;2023-02-01T14:06:00;8.70;95.90
1405;DHT22;697;51.114;6.542;2023-02-01T14:09:19;8.80;95.90
1405;DHT22;697;51.114;6.542;2023-02-01T14:11:56;8.80;95.90
1405;DHT22;697;51.114;6.542;2023-02-01T14:14:45;8.80;96.10
1405;DHT22;697;51.114;6.542;2023-02-01T14:17:40;8.80;96.10
1405;DHT22;697;51.114;6.542;2023-02-01T14:23:28;8.80;96.10
1405;DHT22;697;51.114;6.542;2023-02-01T14:26:20;8.80;96.00
1405;DHT22;697;51.114;6.542;2023-02-01T14:29:02;8.70;96.10
1405;DHT22;697;51.114;6.542;2023-02-01T14:31:39;8.70;96.00
1405;DHT22;697;51.114;6.542;2023-02-01T14:34:18;8.80;96.00
1405;DHT22;697;51.114;6.542;2023-02-01T14:36:52;8.80;95.90
1405;DHT22;697;51.114;6.542;2023-02-01T14:39:35;8.90;96.10
1405;DHT22;697;51.114;6.542;2023-02-01T14:42:20;8.80;96.20
1405;DHT22;697;51.114;6.542;2023-02-01T14:44:49;8.90;96.10
1405;DHT22;697;51.114;6.542;2023-02-01T14:47:32;8.80;96.00
1405;DHT22;697;51.114;6.542;2023-02-01T14:50:34;8.80;95.90
1405;DHT22;697;51.114;6.542;2023-02-01T14:53:18;8.80;95.90
1405;DHT22;697;51.114;6.542;2023-02-01T14:55:49;8.80;95.70
1405;DHT22;697;51.114;6.542;2023-02-01T14:58:23;8.80;96.10
1405;DHT22;697;51.114;6.542;2023-02-01T15:00:55;8.80;95.60
1405;DHT22;697;51.114;6.542;2023-02-01T15:03:47;8.80;95.50
1405;DHT22;697;51.114;6.542;2023-02-01T15:06:26;8.80;95.90
1405;DHT22;697;51.114;6.542;2023-02-01T15:08:57;8.80;95.50
1405;DHT22;697;51.114;6.542;2023-02-01T15:11:25;8.70;95.30
1405;DHT22;697;51.114;6.542;2023-02-01T15:13:53;8.70;95.40
1405;DHT22;697;51.114;6.542;2023-02-01T15:16:23;8.80;95.60
1405;DHT22;697;51.114;6.542;2023-02-01T15:18:50;8.70;95.40
1405;DHT22;697;51.114;6.542;2023-02-01T15:21:18;8.70;95.40
1405;DHT22;697;51.114;6.542;2023-02-01T15:23:46;8.80;95.40
1405;DHT22;697;51.114;6.542;2023-02-01T15:26:26;8.70;95.50
1405;DHT22;697;51.114;6.542;2023-02-01T15:28:53;8.80;95.40
1405;DHT22;697;51.114;6.542;2023-02-01T15:31:32;8.80;95.60
1405;DHT22;697;51.114;6.542;2023-02-01T15:33:59;8.80;95.60
1405;DHT22;697;51.114;6.542;2023-02-01T15:36:26;8.80;95.40
1405;DHT22;697;51.114;6.542;2023-02-01T15:39:24;8.80;95.40
1405;DHT22;697;51.114;6.542;2023-02-01T15:41:54;8.80;95.50
1405;DHT22;697;51.114;6.542;2023-02-01T15:44:31;8.80;95.50
1405;DHT22;697;51.114;6.542;2023-02-01T15:46:58;8.80;95.80
1405;DHT22;697;51.114;6.542;2023-02-01T15:49:28;8.80;95.80
1405;DHT22;697;51.114;6.542;2023-02-01T15:51:57;8.80;95.90
1405;DHT22;697;51.114;6.542;2023-02-01T15:54:27;8.80;96.10
1405;DHT22;697;51.114;6.542;2023-02-01T15:57:00;8.70;96.20
1405;DHT22;697;51.114;6.542;2023-02-01T15:59:37;8.70;96.40
1405;DHT22;697;51.114;6.542;2023-02-01T16:02:28;8.70;96.50
1405;DHT22;697;51.114;6.542;2023-02-01T16:04:56;8.70;96.50
1405;DHT22;697;51.114;6.542;2023-02-01T16:07:26;8.70;96.40
1405;DHT22;697;51.114;6.542;2023-02-01T16:09:58;8.70;96.50
1405;DHT22;697;51.114;6.542;2023-02-01T16:12:32;8.70;96.60
1405;DHT22;697;51.114;6.542;2023-02-01T16:15:00;8.70;96.70
1405;DHT22;697;51.114;6.542;2023-02-01T16:17:27;8.70;96.70
1405;DHT22;697;51.114;6.542;2023-02-01T16:19:54;8.70;96.80
1405;DHT22;697;51.114;6.542;2023-02-01T16:22:22;8.70;97.30
1405;DHT22;697;51.114;6.542;2023-02-01T16:24:49;8.60;97.50
1405;DHT22;697;51.114;6.542;2023-02-01T16:27:17;8.60;97.60
1405;DHT22;697;51.114;6.542;2023-02-01T16:29:44;8.60;98.00
1405;DHT22;697;51.114;6.542;2023-02-01T16:32:15;8.50;98.00
1405;DHT22;697;51.114;6.542;2023-02-01T16:34:42;8.60;98.50
1405;DHT22;697;51.114;6.542;2023-02-01T16:37:12;8.60;98.80
1405;DHT22;697;51.114;6.542;2023-02-01T16:39:39;8.50;98.90
1405;DHT22;697;51.114;6.542;2023-02-01T16:42:10;8.50;99.10
1405;DHT22;697;51.114;6.542;2023-02-01T16:44:40;8.50;99.40
1405;DHT22;697;51.114;6.542;2023-02-01T16:47:12;8.40;99.50
1405;DHT22;697;51.114;6.542;2023-02-01T16:49:40;8.50;99.20
1405;DHT22;697;51.114;6.542;2023-02-01T16:52:12;8.50;99.20
1405;DHT22;697;51.114;6.542;2023-02-01T16:54:39;8.50;98.90
1405;DHT22;697;51.114;6.542;2023-02-01T16:57:10;8.50;98.90
1405;DHT22;697;51.114;6.542;2023-02-01T16:59:39;8.50;98.60
1405;DHT22;697;51.114;6.542;2023-02-01T17:02:08;8.50;98.70
1405;DHT22;697;51.114;6.542;2023-02-01T17:04:36;8.50;98.50
1405;DHT22;697;51.114;6.542;2023-02-01T17:07:03;8.50;98.50
1405;DHT22;697;51.114;6.542;2023-02-01T17:09:34;8.50;98.60
1405;DHT22;697;51.114;6.542;2023-02-01T17:12:01;8.60;98.80
1405;DHT22;697;51.114;6.542;2023-02-01T17:14:30;8.60;99.10
1405;DHT22;697;51.114;6.542;2023-02-01T17:16:59;8.50;98.90
1405;DHT22;697;51.114;6.542;2023-02-01T17:19:26;8.50;98.80